Time;durP1;ratioP1;P1;durP2;ratioP2;P2;SDS_P1;SDS_P2;PMS_P1;PMS_P2;Temp;Humidity;BMP_temperature;BMP_pressure;BME280_temperature;BME280_humidity;BME280_pressure;Samples;Min_cycle;Max_cycle;Signal;HPM_P1;HPM_P2
2022/09/07 00:01:35;;;;;;;10.73;7.55;;;17.40;99.90;;;;;;5036768;28;37480;-80
2022/09/07 00:04:02;;;;;;;11.02;7.15;;;17.30;99.90;;;;;;5028725;28;38272;-79
2022/09/07 00:06:29;;;;;;;10.20;7.50;;;17.20;99.90;;;;;;5015181;28;38504;-79
2022/09/07 00:08:55;;;;;;;10.07;7.65;;;17.30;99.90;;;;;;5014777;28;38703;-79
2022/09/07 00:11:22;;;;;;;8.70;4.85;;;17.30;99.90;;;;;;5030025;28;38101;-78
2022/09/07 00:13:48;;;;;;;6.65;4.15;;;17.20;99.90;;;;;;5017827;28;37879;-78
2022/09/07 00:16:26;;;;;;;8.15;3.65;;;16.90;99.90;;;;;;5037176;28;38481;-79
2022/09/07 00:18:54;;;;;;;4.43;2.75;;;16.80;99.90;;;;;;5014181;28;36881;-78
2022/09/07 00:21:20;;;;;;;4.05;2.95;;;16.70;99.90;;;;;;5033548;28;37589;-79
2022/09/07 00:23:53;;;;;;;7.72;2.55;;;16.50;99.90;;;;;;5017409;28;37519;-78
2022/09/07 00:26:30;;;;;;;8.52;2.97;;;16.50;99.90;;;;;;5024681;28;36965;-79
2022/09/07 00:28:58;;;;;;;6.63;3.15;;;16.50;99.90;;;;;;5044701;28;38597;-79
2022/09/07 00:31:26;;;;;;;4.30;2.80;;;16.50;99.90;;;;;;5011398;28;37324;-79
2022/09/07 00:33:53;;;;;;;6.10;2.70;;;16.50;99.90;;;;;;5011299;28;39839;-79
2022/09/07 00:36:21;;;;;;;5.75;2.60;;;16.50;99.90;;;;;;5010589;28;37274;-79
2022/09/07 00:38:47;;;;;;;5.82;2.75;;;16.40;99.90;;;;;;5022410;28;39167;-79
2022/09/07 00:41:15;;;;;;;5.13;2.70;;;16.40;99.90;;;;;;5027240;28;35451;-79
2022/09/07 00:43:42;;;;;;;5.45;2.42;;;16.40;99.90;;;;;;5027730;28;38984;-78
2022/09/07 00:46:14;;;;;;;5.57;2.63;;;16.40;99.90;;;;;;5025856;28;39769;-79
2022/09/07 00:48:47;;;;;;;4.05;2.58;;;16.40;99.90;;;;;;5008060;28;39263;-79
2022/09/07 00:51:21;;;;;;;4.15;2.85;;;16.40;99.90;;;;;;5006841;28;37986;-79
2022/09/07 00:53:54;;;;;;;5.75;3.05;;;16.50;99.90;;;;;;5008966;28;40062;-78
2022/09/07 00:56:25;;;;;;;5.47;2.92;;;16.50;99.90;;;;;;5024400;28;39612;-79
2022/09/07 00:58:52;;;;;;;3.20;2.30;;;16.40;99.90;;;;;;5009501;28;39502;-78
2022/09/07 01:03:57;;;;;;;3.90;2.45;;;16.50;99.90;;;;;;3852715;22;20140;-76
2022/09/07 01:06:35;;;;;;;4.20;2.20;;;16.50;99.90;;;;;;5048047;28;37623;-77
2022/09/07 01:09:09;;;;;;;3.08;2.20;;;16.60;99.90;;;;;;5032554;28;36441;-77
2022/09/07 01:11:35;;;;;;;2.78;2.45;;;16.60;99.90;;;;;;5039120;28;36290;-77
2022/09/07 01:14:04;;;;;;;6.60;2.45;;;16.60;99.90;;;;;;5054439;28;39550;-77
2022/09/07 01:16:36;;;;;;;4.97;2.70;;;16.60;99.90;;;;;;5039194;28;36904;-77
2022/09/07 01:19:11;;;;;;;;;;;16.50;99.90;;;;;;5051486;28;37939;-77
2022/09/07 01:22:19;;;;;;;2.53;2.10;;;16.60;99.90;;;;;;5035279;28;36110;-77
2022/09/07 01:25:11;;;;;;;4.15;2.28;;;16.60;99.90;;;;;;5050606;28;49529;-77
2022/09/07 01:27:54;;;;;;;3.65;2.75;;;16.70;99.90;;;;;;5027957;28;47055;-77
2022/09/07 01:30:22;;;;;;;4.90;2.25;;;16.60;99.90;;;;;;5031885;28;38528;-77
2022/09/07 01:33:00;;;;;;;4.90;2.97;;;16.60;99.90;;;;;;5033799;28;47326;-76
2022/09/07 01:35:30;;;;;;;3.33;2.95;;;16.70;99.90;;;;;;5050592;28;47901;-77
2022/09/07 01:38:27;;;;;;;3.95;2.63;;;16.70;99.90;;;;;;5050472;28;39460;-77
2022/09/07 01:41:01;;;;;;;5.00;3.33;;;16.70;99.90;;;;;;5025913;28;47538;-76
2022/09/07 01:43:55;;;;;;;5.07;3.08;;;16.80;99.90;;;;;;5035618;28;37255;-77
2022/09/07 01:46:36;;;;;;;3.28;2.90;;;16.70;99.90;;;;;;5052565;28;38999;-77
2022/09/07 01:49:10;;;;;;;7.60;3.30;;;16.70;99.90;;;;;;5054821;28;37065;-77
2022/09/07 01:51:41;;;;;;;6.30;3.03;;;16.70;99.90;;;;;;5051349;28;38681;-78
2022/09/07 01:54:21;;;;;;;8.52;3.28;;;16.60;99.90;;;;;;5051417;28;37647;-77
2022/09/07 01:56:49;;;;;;;6.88;3.70;;;16.70;99.90;;;;;;5051046;28;39634;-77
2022/09/07 01:59:30;;;;;;;5.93;3.00;;;16.70;99.90;;;;;;5035651;28;37224;-77
2022/09/07 02:02:08;;;;;;;7.20;4.35;;;16.70;99.90;;;;;;5057113;28;39057;-77
2022/09/07 02:04:58;;;;;;;5.05;2.88;;;16.80;99.90;;;;;;5019176;28;45489;-77
2022/09/07 02:07:47;;;;;;;5.38;3.97;;;16.80;99.90;;;;;;4972786;28;39449;-77
2022/09/07 02:10:43;;;;;;;4.65;3.90;;;16.80;99.90;;;;;;5023719;28;38861;-77
2022/09/07 02:13:27;;;;;;;7.75;3.63;;;16.70;99.90;;;;;;5011703;28;38716;-77
2022/09/07 02:15:59;;;;;;;5.07;3.40;;;16.60;99.90;;;;;;5017313;28;36026;-77
2022/09/07 02:18:31;;;;;;;4.10;2.80;;;16.60;99.90;;;;;;5031075;28;38346;-76
2022/09/07 02:21:02;;;;;;;6.03;3.58;;;16.70;99.90;;;;;;5015892;28;36631;-77
2022/09/07 02:23:39;;;;;;;8.45;4.05;;;16.70;99.90;;;;;;5031005;28;48460;-76
2022/09/07 02:26:11;;;;;;;6.57;3.50;;;16.70;99.90;;;;;;5009192;28;35824;-77
2022/09/07 02:28:38;;;;;;;;;;;16.80;99.90;;;;;;5032991;28;39418;-78
2022/09/07 02:31:04;;;;;;;7.75;3.72;;;16.70;99.90;;;;;;5016039;28;40145;-77
2022/09/07 02:33:30;;;;;;;3.28;2.95;;;16.70;99.90;;;;;;5015971;28;37553;-78
2022/09/07 02:35:57;;;;;;;5.70;3.17;;;16.70;99.90;;;;;;5036290;28;37131;-78
2022/09/07 02:38:24;;;;;;;6.32;3.20;;;16.70;99.90;;;;;;5018273;28;37787;-78
2022/09/07 02:40:55;;;;;;;5.20;3.35;;;16.60;99.90;;;;;;5035312;28;39633;-77
2022/09/07 02:43:23;;;;;;;7.10;2.60;;;16.60;99.90;;;;;;5039680;28;38671;-77
2022/09/07 02:46:37;;;;;;;7.22;3.50;;;16.50;99.90;;;;;;5038397;28;37744;-77
2022/09/07 02:49:21;;;;;;;3.85;2.40;;;16.50;99.90;;;;;;5007127;28;48713;-77
2022/09/07 02:52:14;;;;;;;6.35;3.17;;;16.50;99.90;;;;;;5027122;28;38122;-77
2022/09/07 02:54:52;;;;;;;5.30;3.85;;;16.50;99.90;;;;;;5028763;28;47979;-77
2022/09/07 02:57:21;;;;;;;3.88;3.17;;;16.40;99.90;;;;;;5016505;28;35850;-76
2022/09/07 03:00:11;;;;;;;4.70;3.70;;;16.40;99.90;;;;;;5015085;28;41770;-77
2022/09/07 03:02:43;;;;;;;7.07;4.32;;;16.40;99.90;;;;;;5014100;28;47271;-77
2022/09/07 03:05:18;;;;;;;5.28;4.63;;;16.40;99.90;;;;;;5028188;28;38407;-77
2022/09/07 03:07:59;;;;;;;5.07;3.75;;;16.40;99.90;;;;;;5033034;28;37989;-78
2022/09/07 03:10:27;;;;;;;5.88;3.95;;;16.40;99.90;;;;;;5018915;28;37919;-78
2022/09/07 03:12:53;;;;;;;8.88;4.45;;;16.30;99.90;;;;;;5032543;28;38565;-78
2022/09/07 03:15:23;;;;;;;7.25;5.15;;;16.30;99.90;;;;;;5033085;28;36834;-77
2022/09/07 03:17:50;;;;;;;7.47;4.32;;;16.30;99.90;;;;;;5014172;28;38017;-77
2022/09/07 03:20:16;;;;;;;6.43;4.82;;;16.20;99.90;;;;;;5023888;28;39295;-77
2022/09/07 03:22:44;;;;;;;5.97;3.55;;;16.20;99.90;;;;;;5028053;28;38991;-77
2022/09/07 03:25:11;;;;;;;6.65;3.55;;;16.20;99.90;;;;;;5037850;28;38224;-77
2022/09/07 03:27:37;;;;;;;8.93;4.30;;;16.20;99.90;;;;;;5025891;28;37315;-77
2022/09/07 03:30:05;;;;;;;6.75;3.70;;;16.20;99.90;;;;;;5012900;28;39330;-77
2022/09/07 03:32:33;;;;;;;7.65;4.85;;;16.10;99.90;;;;;;5031659;28;39403;-77
2022/09/07 03:35:00;;;;;;;5.88;4.40;;;16.10;99.90;;;;;;5010585;28;36661;-77
2022/09/07 03:37:27;;;;;;;5.53;4.10;;;16.10;99.90;;;;;;5032257;28;38394;-76
2022/09/07 03:39:54;;;;;;;3.92;3.60;;;16.10;99.90;;;;;;5011504;28;39490;-76
2022/09/07 03:42:20;;;;;;;4.53;3.78;;;16.10;99.90;;;;;;5027462;28;38493;-77
2022/09/07 03:44:50;;;;;;;4.90;4.10;;;16.00;99.90;;;;;;5011126;28;36416;-77
2022/09/07 03:47:16;;;;;;;4.40;4.00;;;16.00;99.90;;;;;;5025533;28;38219;-77
2022/09/07 03:49:43;;;;;;;6.70;4.65;;;16.10;99.90;;;;;;5009430;28;38719;-77
2022/09/07 03:52:09;;;;;;;8.77;6.45;;;16.00;99.90;;;;;;5031973;28;38647;-77
2022/09/07 03:54:35;;;;;;;7.18;5.18;;;16.00;99.90;;;;;;5033330;28;38252;-77
2022/09/07 03:57:02;;;;;;;5.78;4.88;;;16.00;99.90;;;;;;5020096;28;37800;-77
2022/09/07 03:59:28;;;;;;;12.55;8.00;;;16.00;99.90;;;;;;5017206;28;38771;-77
2022/09/07 04:01:54;;;;;;;8.30;5.45;;;16.10;99.90;;;;;;5036427;28;38577;-77
2022/09/07 04:04:20;;;;;;;7.57;5.30;;;16.00;99.90;;;;;;5030186;28;38359;-77
2022/09/07 04:06:47;;;;;;;9.30;6.80;;;16.10;99.90;;;;;;5018449;28;39027;-77
2022/09/07 04:09:14;;;;;;;9.02;6.07;;;16.10;99.90;;;;;;5015151;28;38542;-77
2022/09/07 04:11:41;;;;;;;8.02;5.80;;;16.00;99.90;;;;;;5038992;28;37613;-77
2022/09/07 04:14:08;;;;;;;8.20;6.43;;;16.10;99.90;;;;;;5020416;28;40662;-77
2022/09/07 04:16:34;;;;;;;8.23;6.88;;;16.00;99.90;;;;;;5009813;28;37167;-77
2022/09/07 04:19:00;;;;;;;9.95;7.50;;;16.10;99.90;;;;;;5017131;28;37644;-78
2022/09/07 04:21:28;;;;;;;14.20;8.32;;;16.00;99.90;;;;;;5037186;28;37950;-78
2022/09/07 04:23:54;;;;;;;7.43;6.72;;;16.00;99.90;;;;;;5030001;28;38380;-78
2022/09/07 04:26:22;;;;;;;12.07;9.70;;;16.10;99.90;;;;;;5033682;28;38113;-77
2022/09/07 04:28:48;;;;;;;10.73;8.02;;;16.00;99.90;;;;;;5011361;28;38014;-78
2022/09/07 04:31:16;;;;;;;9.50;7.93;;;16.00;99.90;;;;;;5015895;28;37141;-78
2022/09/07 04:33:44;;;;;;;16.90;10.40;;;16.10;99.90;;;;;;5028441;28;37352;-77
2022/09/07 04:36:11;;;;;;;17.08;10.98;;;16.00;99.90;;;;;;5030632;28;37141;-77
2022/09/07 04:38:38;;;;;;;11.18;8.93;;;16.00;99.90;;;;;;5014383;28;38914;-77
2022/09/07 04:41:08;;;;;;;9.57;8.57;;;16.00;99.90;;;;;;5014835;28;37262;-76
2022/09/07 04:43:36;;;;;;;9.70;8.68;;;16.00;99.90;;;;;;5036372;28;37402;-76
2022/09/07 04:46:05;;;;;;;19.10;12.15;;;16.00;99.90;;;;;;5040807;28;37224;-77
2022/09/07 04:48:31;;;;;;;12.60;9.18;;;16.00;99.90;;;;;;5034260;28;39073;-77
2022/09/07 04:51:07;;;;;;;11.50;8.98;;;15.90;99.90;;;;;;5016097;28;37230;-76
2022/09/07 04:53:35;;;;;;;20.23;13.88;;;15.90;99.90;;;;;;5021748;28;46978;-75
2022/09/07 04:56:02;;;;;;;20.02;12.73;;;16.00;99.90;;;;;;5006109;28;38024;-75
2022/09/07 04:58:29;;;;;;;14.10;10.90;;;16.00;99.90;;;;;;5025873;28;48660;-75
2022/09/07 05:01:00;;;;;;;16.77;12.35;;;16.00;99.90;;;;;;5028813;28;36366;-75
2022/09/07 05:03:28;;;;;;;14.43;11.93;;;16.00;99.90;;;;;;5010768;28;39025;-75
2022/09/07 05:05:54;;;;;;;19.60;12.90;;;16.00;99.90;;;;;;5027829;28;38111;-75
2022/09/07 05:08:20;;;;;;;17.30;13.00;;;16.00;99.90;;;;;;5015219;28;38675;-75
2022/09/07 05:10:51;;;;;;;12.80;11.50;;;16.00;99.90;;;;;;5028587;28;38464;-75
2022/09/07 05:13:18;;;;;;;20.55;12.77;;;16.00;99.90;;;;;;5009124;28;36759;-75
2022/09/07 05:15:44;;;;;;;17.98;13.43;;;16.00;99.90;;;;;;5024830;28;38398;-75
2022/09/07 05:18:11;;;;;;;24.00;17.75;;;15.90;99.90;;;;;;5003399;28;37562;-75
2022/09/07 05:20:38;;;;;;;26.95;16.33;;;16.00;99.90;;;;;;5028743;28;37686;-75
2022/09/07 05:23:04;;;;;;;19.25;14.85;;;16.00;99.90;;;;;;5008183;28;38546;-75
2022/09/07 05:25:31;;;;;;;16.27;12.98;;;16.00;99.90;;;;;;5010355;28;37985;-75
2022/09/07 05:27:57;;;;;;;16.30;12.05;;;15.90;99.90;;;;;;5005689;28;38026;-75
2022/09/07 05:30:23;;;;;;;24.77;16.77;;;15.90;99.90;;;;;;5009535;28;39804;-75
2022/09/07 05:32:50;;;;;;;21.77;15.48;;;15.90;99.90;;;;;;5025140;28;38612;-75
2022/09/07 05:35:17;;;;;;;20.25;14.98;;;15.90;99.90;;;;;;5011879;28;36337;-74
2022/09/07 05:37:49;;;;;;;19.55;14.02;;;15.90;99.90;;;;;;5011600;28;39844;-75
2022/09/07 05:40:15;;;;;;;19.77;16.30;;;16.00;99.90;;;;;;5011237;28;35915;-74
2022/09/07 05:42:47;;;;;;;16.05;13.98;;;15.90;99.90;;;;;;5010868;28;38383;-76
2022/09/07 05:45:26;;;;;;;17.83;13.18;;;15.90;99.90;;;;;;5008189;28;36785;-74
2022/09/07 05:48:13;;;;;;;21.15;15.25;;;15.90;99.90;;;;;;4992242;28;39793;-75
2022/09/07 05:51:32;;;;;;;21.92;15.48;;;15.90;99.90;;;;;;4986871;28;47039;-73
2022/09/07 05:53:57;;;;;;;28.05;20.08;;;16.00;99.90;;;;;;4974483;28;49758;-76
2022/09/07 05:56:23;;;;;;;23.10;16.23;;;16.00;99.90;;;;;;5007962;28;36390;-76
2022/09/07 05:58:49;;;;;;;29.70;18.33;;;16.00;99.90;;;;;;5027427;28;39052;-76
2022/09/07 06:01:16;;;;;;;17.38;14.93;;;16.00;99.90;;;;;;5007220;28;38362;-76
2022/09/07 06:03:43;;;;;;;20.88;16.88;;;16.00;99.90;;;;;;5019084;28;37641;-74
2022/09/07 06:06:16;;;;;;;22.27;17.73;;;16.00;99.90;;;;;;5046631;28;36910;-74
2022/09/07 06:08:51;;;;;;;26.58;20.63;;;16.00;99.90;;;;;;5047938;28;39145;-74
2022/09/07 06:11:19;;;;;;;24.70;18.00;;;16.10;99.90;;;;;;5024225;28;37498;-75
2022/09/07 06:13:45;;;;;;;24.83;17.50;;;16.20;99.90;;;;;;5027227;28;39815;-74
2022/09/07 06:16:13;;;;;;;21.02;16.75;;;16.10;99.90;;;;;;5023602;28;38233;-75
2022/09/07 06:18:44;;;;;;;21.13;17.00;;;16.10;99.90;;;;;;5023644;28;37936;-75
2022/09/07 06:21:16;;;;;;;26.17;19.27;;;16.10;99.90;;;;;;5042534;28;38313;-74
2022/09/07 06:23:43;;;;;;;;;;;16.20;99.90;;;;;;5047602;28;37383;-74
2022/09/07 06:26:13;;;;;;;38.58;23.70;;;16.20;99.90;;;;;;5026637;28;38323;-74
2022/09/07 06:28:41;;;;;;;36.55;23.83;;;16.30;99.90;;;;;;5022744;28;39575;-74
2022/09/07 06:31:12;;;;;;;23.13;17.67;;;16.40;99.90;;;;;;5024917;28;20653;-75
2022/09/07 06:33:39;;;;;;;23.80;18.13;;;16.30;99.90;;;;;;5046444;28;39556;-75
2022/09/07 06:36:17;;;;;;;26.92;18.15;;;16.30;99.90;;;;;;5028264;28;38377;-75
2022/09/07 06:38:44;;;;;;;22.60;17.33;;;16.30;99.90;;;;;;5029070;28;39867;-74
2022/09/07 06:41:15;;;;;;;22.85;17.08;;;16.30;99.90;;;;;;5029463;28;37858;-75
2022/09/07 06:43:42;;;;;;;21.07;16.13;;;16.30;99.90;;;;;;5045216;28;36702;-75
2022/09/07 06:46:09;;;;;;;20.00;14.95;;;16.40;99.90;;;;;;5044427;28;37587;-75
2022/09/07 06:48:36;;;;;;;21.50;16.33;;;16.40;99.90;;;;;;5046550;28;39105;-75
2022/09/07 06:51:06;;;;;;;23.85;17.42;;;16.40;99.90;;;;;;5024490;28;38932;-75
2022/09/07 06:53:33;;;;;;;17.98;14.88;;;16.50;99.90;;;;;;5035968;28;48580;-75
2022/09/07 06:56:00;;;;;;;19.45;15.60;;;16.60;99.90;;;;;;5031761;28;36550;-75
2022/09/07 06:58:27;;;;;;;20.40;14.98;;;16.70;99.90;;;;;;5048573;28;38683;-75
2022/09/07 07:00:53;;;;;;;18.92;14.85;;;16.80;99.90;;;;;;5033825;28;39810;-75
2022/09/07 07:03:20;;;;;;;20.58;14.98;;;16.80;99.90;;;;;;5029280;28;38253;-75
2022/09/07 07:05:55;;;;;;;15.02;12.30;;;16.80;99.90;;;;;;5029794;28;37880;-75
2022/09/07 07:08:23;;;;;;;15.10;12.43;;;16.90;99.90;;;;;;5045162;28;39962;-75
2022/09/07 07:10:50;;;;;;;20.08;12.60;;;17.00;99.90;;;;;;5029472;28;37701;-75
2022/09/07 07:13:17;;;;;;;13.30;11.48;;;17.10;99.90;;;;;;5028586;28;41468;-75
2022/09/07 07:15:44;;;;;;;15.10;12.02;;;16.90;99.90;;;;;;5050685;28;38195;-75
2022/09/07 07:18:11;;;;;;;17.77;11.45;;;17.00;99.90;;;;;;5048588;28;39526;-75
2022/09/07 07:20:38;;;;;;;17.60;12.07;;;17.10;99.90;;;;;;5030655;28;38902;-75
2022/09/07 07:23:05;;;;;;;14.63;10.70;;;17.20;99.90;;;;;;5030374;28;38781;-75
2022/09/07 07:25:34;;;;;;;10.60;9.43;;;17.20;99.90;;;;;;5032042;28;36153;-75
2022/09/07 07:28:00;;;;;;;12.10;9.90;;;17.30;99.90;;;;;;5030110;28;39585;-76
2022/09/07 07:30:26;;;;;;;16.58;11.60;;;17.40;99.90;;;;;;5030739;28;39796;-75
2022/09/07 07:32:52;;;;;;;13.95;10.70;;;17.50;99.90;;;;;;5031245;28;39466;-75
2022/09/07 07:35:19;;;;;;;14.30;11.63;;;17.70;99.90;;;;;;5051100;28;38422;-75
2022/09/07 07:37:46;;;;;;;20.02;13.55;;;17.80;99.90;;;;;;5050398;28;39836;-75
2022/09/07 07:40:14;;;;;;;15.07;12.07;;;17.80;99.90;;;;;;5052124;28;39347;-75
2022/09/07 07:42:40;;;;;;;20.00;15.85;;;17.80;99.90;;;;;;5049316;28;39574;-76
2022/09/07 07:45:08;;;;;;;22.63;17.92;;;17.90;99.90;;;;;;5034108;28;39225;-76
2022/09/07 07:47:37;;;;;;;19.05;15.32;;;18.00;99.90;;;;;;5033918;28;39349;-75
2022/09/07 07:50:05;;;;;;;21.15;16.05;;;18.10;99.90;;;;;;5052477;28;38824;-76
2022/09/07 07:52:37;;;;;;;19.48;16.63;;;18.40;99.90;;;;;;5035939;28;37141;-76
2022/09/07 07:55:05;;;;;;;19.70;17.10;;;18.50;99.90;;;;;;5052537;28;37672;-76
2022/09/07 07:57:31;;;;;;;21.73;19.42;;;18.70;99.90;;;;;;5031583;28;37504;-76
2022/09/07 07:59:57;;;;;;;21.65;19.35;;;18.70;99.90;;;;;;5051621;28;38746;-76
2022/09/07 08:02:23;;;;;;;23.55;19.05;;;18.80;99.90;;;;;;5046040;28;39324;-76
2022/09/07 08:04:51;;;;;;;21.48;19.25;;;18.90;99.90;;;;;;5034582;28;36710;-76
2022/09/07 08:07:18;;;;;;;20.77;18.58;;;19.10;99.90;;;;;;5056191;28;38700;-77
2022/09/07 08:09:46;;;;;;;20.02;17.70;;;19.30;99.90;;;;;;5063471;28;39220;-76
2022/09/07 08:12:18;;;;;;;21.42;18.55;;;19.40;99.90;;;;;;5056754;28;38501;-77
2022/09/07 08:14:46;;;;;;;18.02;16.10;;;19.40;99.90;;;;;;5039533;28;36134;-77
2022/09/07 08:17:15;;;;;;;19.05;17.02;;;19.40;99.90;;;;;;5054545;28;38696;-77
2022/09/07 08:19:41;;;;;;;18.85;16.67;;;19.50;99.90;;;;;;5037476;28;37781;-76
2022/09/07 08:22:09;;;;;;;17.40;15.60;;;19.40;99.90;;;;;;5033798;28;38079;-77
2022/09/07 08:24:35;;;;;;;17.77;15.35;;;19.30;99.90;;;;;;5036465;28;39190;-76
2022/09/07 08:27:02;;;;;;;16.65;14.95;;;19.50;99.90;;;;;;5032989;28;37795;-76
2022/09/07 08:29:28;;;;;;;15.50;13.98;;;19.60;99.90;;;;;;5055210;28;39370;-77
2022/09/07 08:31:57;;;;;;;18.42;15.18;;;19.60;99.90;;;;;;5036862;28;39061;-76
2022/09/07 08:34:23;;;;;;;14.45;12.57;;;19.80;99.90;;;;;;5037496;28;35744;-75
2022/09/07 08:36:49;;;;;;;13.73;11.80;;;19.90;99.90;;;;;;5033878;28;37183;-77
2022/09/07 08:39:15;;;;;;;13.82;12.43;;;20.10;99.90;;;;;;5038914;28;37209;-77
2022/09/07 08:42:03;;;;;;;12.63;11.32;;;20.30;99.90;;;;;;5040023;28;36513;-76
2022/09/07 08:44:33;;;;;;;16.98;12.85;;;20.50;99.90;;;;;;5063537;28;47297;-76
2022/09/07 08:47:26;;;;;;;11.82;10.65;;;20.70;99.90;;;;;;5039151;28;37517;-76
2022/09/07 08:50:11;;;;;;;15.00;10.57;;;20.50;99.90;;;;;;5038377;28;47006;-77
2022/09/07 08:52:43;;;;;;;10.75;8.80;;;20.80;99.90;;;;;;5056105;28;48994;-77
2022/09/07 08:55:46;;;;;;;11.75;6.88;;;20.90;99.90;;;;;;5034016;28;37642;-77
2022/09/07 08:58:25;;;;;;;12.18;6.88;;;20.90;99.90;;;;;;5025086;28;37731;-76
2022/09/07 09:00:51;;;;;;;9.52;6.32;;;21.00;99.90;;;;;;5058252;28;37206;-77
2022/09/07 09:03:32;;;;;;;8.93;6.28;;;20.80;99.90;;;;;;5034956;28;38389;-76
2022/09/07 09:06:13;;;;;;;11.15;6.50;;;20.90;99.90;;;;;;5067768;28;38678;-76
2022/09/07 09:08:49;;;;;;;7.55;4.90;;;20.80;99.90;;;;;;5050968;28;49311;-77
2022/09/07 09:11:37;;;;;;;9.95;5.00;;;21.00;99.90;;;;;;5052163;28;39157;-77
2022/09/07 09:14:33;;;;;;;10.30;6.20;;;21.10;99.90;;;;;;5055720;28;37804;-77
2022/09/07 09:17:08;;;;;;;8.68;5.47;;;21.10;99.90;;;;;;5029971;28;36532;-77
2022/09/07 09:19:48;;;;;;;7.60;5.68;;;21.20;99.90;;;;;;5035384;28;47029;-77
2022/09/07 09:22:20;;;;;;;9.25;4.57;;;21.30;99.90;;;;;;5057453;28;39008;-77
2022/09/07 09:24:55;;;;;;;8.48;4.00;;;21.40;99.90;;;;;;5041673;28;37181;-77
2022/09/07 09:27:21;;;;;;;7.00;4.05;;;21.40;99.90;;;;;;5042307;28;35899;-77
2022/09/07 09:29:47;;;;;;;11.07;4.50;;;21.50;99.90;;;;;;5037290;28;38736;-77
2022/09/07 09:32:40;;;;;;;7.97;3.67;;;21.50;99.90;;;;;;5040569;28;39251;-78
2022/09/07 09:35:33;;;;;;;6.53;3.20;;;21.50;99.90;;;;;;5035868;28;38253;-77
2022/09/07 09:38:02;;;;;;;10.05;3.60;;;21.50;99.90;;;;;;5042237;28;37125;-77
2022/09/07 09:40:33;;;;;;;9.82;4.03;;;21.40;99.90;;;;;;5040022;28;47415;-77
2022/09/07 09:43:20;;;;;;;9.20;4.00;;;21.50;99.90;;;;;;5039013;28;37780;-77
2022/09/07 09:45:57;;;;;;;10.30;3.88;;;21.40;99.90;;;;;;5058414;28;46861;-77
2022/09/07 09:48:39;;;;;;;9.98;3.45;;;21.50;99.90;;;;;;5041271;28;36689;-78
2022/09/07 09:51:07;;;;;;;7.60;2.83;;;21.60;99.90;;;;;;5058370;28;38543;-77
2022/09/07 09:53:40;;;;;;;12.13;4.22;;;21.80;99.90;;;;;;5038878;28;39108;-77
2022/09/07 09:56:06;;;;;;;8.02;2.83;;;21.70;99.90;;;;;;5057015;28;39334;-78
2022/09/07 09:58:36;;;;;;;11.02;3.60;;;22.00;99.90;;;;;;5024506;28;37482;-77
2022/09/07 10:01:06;;;;;;;8.82;3.67;;;22.10;99.90;;;;;;5026669;28;39885;-77
2022/09/07 10:03:33;;;;;;;8.07;3.33;;;22.50;99.90;;;;;;5041816;28;38153;-77
2022/09/07 10:06:03;;;;;;;8.77;3.47;;;22.70;99.90;;;;;;5048783;28;38815;-76
2022/09/07 10:08:31;;;;;;;6.75;3.03;;;22.60;99.90;;;;;;5030306;28;47773;-76
2022/09/07 10:10:59;;;;;;;9.20;3.20;;;22.20;99.90;;;;;;5053993;28;39368;-76
2022/09/07 10:13:34;;;;;;;7.78;3.53;;;21.90;99.90;;;;;;5049435;28;39105;-76
2022/09/07 10:16:03;;;;;;;7.20;2.85;;;22.00;99.90;;;;;;5027450;28;38757;-77
2022/09/07 10:18:32;;;;;;;6.53;2.53;;;22.10;99.90;;;;;;5033194;28;47055;-77
2022/09/07 10:21:28;;;;;;;7.80;2.63;;;22.40;99.90;;;;;;5045819;28;38657;-77
2022/09/07 10:23:59;;;;;;;9.05;2.70;;;22.40;99.90;;;;;;5042377;28;48993;-77
2022/09/07 10:26:32;;;;;;;7.25;2.83;;;22.10;99.90;;;;;;5051632;28;37608;-77
2022/09/07 10:29:29;;;;;;;7.18;3.15;;;22.10;99.90;;;;;;5056556;28;39135;-77
2022/09/07 10:32:17;;;;;;;6.80;2.58;;;22.20;99.90;;;;;;5021320;28;46652;-77
2022/09/07 10:35:05;;;;;;;8.20;2.60;;;22.60;99.90;;;;;;5025136;28;46998;-77
2022/09/07 10:38:05;;;;;;;6.47;2.80;;;22.80;99.90;;;;;;5027184;28;48172;-77
2022/09/07 10:40:34;;;;;;;10.48;3.38;;;22.50;99.90;;;;;;5016160;28;46999;-77
2022/09/07 10:43:27;;;;;;;7.35;2.80;;;22.40;99.90;;;;;;5029061;28;39166;-76
2022/09/07 10:45:56;;;;;;;7.30;3.25;;;22.50;99.90;;;;;;5048567;28;46930;-77
2022/09/07 10:48:27;;;;;;;7.97;3.53;;;22.20;99.90;;;;;;5041987;28;38257;-76
2022/09/07 10:50:57;;;;;;;9.68;3.92;;;22.00;99.90;;;;;;5039056;28;35914;-76
2022/09/07 10:53:32;;;;;;;7.43;3.08;;;22.20;99.90;;;;;;5058178;28;40494;-77
2022/09/07 10:56:04;;;;;;;10.32;3.35;;;22.50;99.90;;;;;;5044587;28;38454;-78
2022/09/07 10:58:43;;;;;;;7.22;3.42;;;22.90;99.90;;;;;;5025369;28;46976;-79
2022/09/07 11:01:23;;;;;;;9.73;3.42;;;22.80;99.90;;;;;;5055911;28;38194;-77
2022/09/07 11:04:13;;;;;;;9.63;3.05;;;22.50;99.90;;;;;;5041756;28;39142;-76
2022/09/07 11:06:49;;;;;;;10.90;3.30;;;22.70;99.90;;;;;;5028779;28;47310;-76
2022/09/07 11:09:30;;;;;;;7.80;2.67;;;22.30;99.90;;;;;;5046544;28;37472;-77
2022/09/07 11:12:02;;;;;;;10.43;2.97;;;22.30;99.90;;;;;;5043003;28;37671;-77
2022/09/07 11:14:35;;;;;;;9.18;2.60;;;22.50;99.90;;;;;;5052409;28;48447;-78
2022/09/07 11:17:07;;;;;;;6.93;2.53;;;22.40;99.90;;;;;;5033470;28;39387;-78
2022/09/07 11:19:38;;;;;;;5.63;1.90;;;22.60;99.90;;;;;;5046825;28;37815;-76
2022/09/07 11:22:17;;;;;;;12.67;2.67;;;23.10;99.90;;;;;;5046994;28;37767;-77
2022/09/07 11:25:05;;;;;;;8.85;2.10;;;22.90;99.90;;;;;;5029020;28;39706;-76
2022/09/07 11:27:56;;;;;;;10.93;2.15;;;22.70;99.90;;;;;;5023880;28;47253;-76
2022/09/07 11:30:28;;;;;;;7.95;2.20;;;22.70;99.90;;;;;;5032128;28;39329;-76
2022/09/07 11:32:54;;;;;;;;;;;22.90;99.90;;;;;;5051122;28;37386;-76
2022/09/07 11:35:57;;;;;;;6.15;1.92;;;22.60;99.90;;;;;;5052032;28;40326;-77
2022/09/07 11:38:37;;;;;;;11.68;2.25;;;22.90;99.90;;;;;;5021116;28;38770;-76
2022/09/07 11:41:15;;;;;;;8.32;2.30;;;22.90;99.90;;;;;;5025173;28;38604;-78
2022/09/07 11:43:56;;;;;;;6.13;1.88;;;22.90;99.90;;;;;;5045606;28;37882;-76
2022/09/07 11:46:44;;;;;;;7.47;1.83;;;23.20;99.90;;;;;;5027239;28;37549;-76
2022/09/07 11:49:24;;;;;;;8.05;1.85;;;23.20;99.90;;;;;;5047746;28;38832;-77
2022/09/07 11:51:56;;;;;;;10.00;2.03;;;23.30;99.90;;;;;;5027617;28;38421;-76
2022/09/07 11:54:43;;;;;;;11.00;1.95;;;23.30;99.90;;;;;;5046133;28;38039;-76
2022/09/07 11:57:44;;;;;;;6.63;1.88;;;23.10;99.90;;;;;;5048031;28;40153;-77
2022/09/07 12:00:13;;;;;;;7.65;1.92;;;23.50;99.90;;;;;;5027097;28;39974;-75
2022/09/07 12:03:24;;;;;;;8.27;1.95;;;23.70;99.90;;;;;;5018975;28;38716;-75
2022/09/07 12:06:08;;;;;;;5.95;1.55;;;23.80;99.90;;;;;;5026159;28;47388;-75
2022/09/07 12:08:59;;;;;;;7.60;1.75;;;23.80;99.90;;;;;;5029927;28;47457;-75
2022/09/07 12:11:40;;;;;;;9.75;1.70;;;23.50;99.90;;;;;;5047925;28;38559;-77
2022/09/07 12:14:32;;;;;;;6.50;1.58;;;23.10;99.90;;;;;;5043576;28;36840;-77
2022/09/07 12:17:12;;;;;;;6.80;1.70;;;23.30;99.90;;;;;;5034137;28;37685;-76
2022/09/07 12:19:39;;;;;;;7.65;1.88;;;23.10;99.90;;;;;;5042669;28;48800;-76
2022/09/07 12:22:19;;;;;;;7.68;1.65;;;22.80;99.90;;;;;;5031555;28;37266;-76
2022/09/07 12:24:50;;;;;;;8.55;2.03;;;22.80;99.90;;;;;;5050942;28;39585;-76
2022/09/07 12:27:19;;;;;;;7.35;2.13;;;23.30;99.90;;;;;;5037742;28;38574;-75
2022/09/07 12:30:09;;;;;;;10.93;2.17;;;23.20;99.90;;;;;;5047962;28;39866;-76
2022/09/07 12:32:47;;;;;;;5.13;1.50;;;23.30;99.90;;;;;;5019468;28;47404;-76
2022/09/07 12:35:28;;;;;;;8.25;1.98;;;23.30;99.90;;;;;;5049394;28;38117;-76
2022/09/07 12:38:04;;;;;;;13.50;2.10;;;23.40;99.90;;;;;;5025029;28;38152;-76
2022/09/07 12:40:32;;;;;;;8.32;1.90;;;23.20;99.90;;;;;;5050424;28;48833;-76
2022/09/07 12:43:13;;;;;;;9.02;1.88;;;23.40;99.90;;;;;;5046432;28;39352;-76
2022/09/07 12:45:39;;;;;;;9.32;1.95;;;23.40;99.90;;;;;;5045753;28;47070;-77
2022/09/07 12:48:32;;;;;;;4.95;1.30;;;23.60;99.90;;;;;;5049590;28;38561;-77
2022/09/07 12:51:22;;;;;;;4.00;1.30;;;23.50;99.90;;;;;;5048110;28;39295;-76
2022/09/07 12:54:16;;;;;;;8.55;1.80;;;23.80;99.90;;;;;;5027679;28;46958;-75
2022/09/07 12:57:24;;;;;;;11.18;2.15;;;23.90;99.90;;;;;;5028835;28;47125;-75
2022/09/07 13:00:17;;;;;;;9.60;2.13;;;23.50;99.90;;;;;;5007883;28;47620;-76
2022/09/07 13:03:13;;;;;;;8.55;2.17;;;23.70;99.90;;;;;;5045441;28;46797;-76
2022/09/07 13:05:59;;;;;;;9.90;2.17;;;23.70;99.90;;;;;;5005801;28;47157;-76
2022/09/07 13:08:31;;;;;;;8.23;2.20;;;23.90;99.90;;;;;;5023397;28;38951;-76
2022/09/07 13:11:25;;;;;;;;;;;24.10;99.90;;;;;;5026010;28;38144;-76
2022/09/07 13:14:04;;;;;;;9.40;1.75;;;23.50;99.90;;;;;;5041410;28;49120;-76
2022/09/07 13:16:36;;;;;;;5.97;1.30;;;23.20;99.90;;;;;;5044965;28;47328;-76